sensor_id;sensor_type;location;lat;lon;timestamp;P1;durP1;ratioP1;P2;durP2;ratioP2
6463;SDS011;3265;42.694;23.282;2023-06-10T00:00:07;9.98;;;7.05;;
6463;SDS011;3265;42.694;23.282;2023-06-10T00:02:37;11.52;;;6.82;;
6463;SDS011;3265;42.694;23.282;2023-06-10T00:05:04;9.00;;;7.15;;
6463;SDS011;3265;42.694;23.282;2023-06-10T00:07:34;9.13;;;6.88;;
6463;SDS011;3265;42.694;23.282;2023-06-10T00:10:03;13.52;;;6.70;;
6463;SDS011;3265;42.694;23.282;2023-06-10T00:12:31;9.48;;;6.95;;
6463;SDS011;3265;42.694;23.282;2023-06-10T00:15:03;11.77;;;7.40;;
6463;SDS011;3265;42.694;23.282;2023-06-10T00:17:31;9.50;;;7.30;;
6463;SDS011;3265;42.694;23.282;2023-06-10T00:19:58;9.52;;;6.82;;
6463;SDS011;3265;42.694;23.282;2023-06-10T00:22:25;10.65;;;6.93;;
6463;SDS011;3265;42.694;23.282;2023-06-10T00:24:55;10.77;;;6.80;;
6463;SDS011;3265;42.694;23.282;2023-06-10T00:27:22;8.73;;;6.65;;
6463;SDS011;3265;42.694;23.282;2023-06-10T00:29:50;12.45;;;7.60;;
6463;SDS011;3265;42.694;23.282;2023-06-10T00:32:16;9.57;;;7.05;;
6463;SDS011;3265;42.694;23.282;2023-06-10T00:34:59;13.60;;;7.70;;
6463;SDS011;3265;42.694;23.282;2023-06-10T00:37:25;21.38;;;12.15;;
6463;SDS011;3265;42.694;23.282;2023-06-10T00:39:53;18.73;;;11.55;;
6463;SDS011;3265;42.694;23.282;2023-06-10T00:42:22;19.00;;;11.50;;
6463;SDS011;3265;42.694;23.282;2023-06-10T00:44:49;15.55;;;10.20;;
6463;SDS011;3265;42.694;23.282;2023-06-10T00:47:16;18.63;;;9.15;;
6463;SDS011;3265;42.694;23.282;2023-06-10T00:49:44;13.27;;;9.73;;
6463;SDS011;3265;42.694;23.282;2023-06-10T00:52:11;13.90;;;9.98;;
6463;SDS011;3265;42.694;23.282;2023-06-10T00:54:40;16.50;;;10.73;;
6463;SDS011;3265;42.694;23.282;2023-06-10T00:57:08;15.85;;;10.15;;
6463;SDS011;3265;42.694;23.282;2023-06-10T00:59:35;12.20;;;9.73;;
6463;SDS011;3265;42.694;23.282;2023-06-10T01:02:03;13.32;;;9.60;;
6463;SDS011;3265;42.694;23.282;2023-06-10T01:04:30;14.77;;;9.65;;
6463;SDS011;3265;42.694;23.282;2023-06-10T01:06:59;16.48;;;9.23;;
6463;SDS011;3265;42.694;23.282;2023-06-10T01:09:33;13.63;;;9.23;;
6463;SDS011;3265;42.694;23.282;2023-06-10T01:12:11;13.10;;;9.55;;
6463;SDS011;3265;42.694;23.282;2023-06-10T01:14:49;11.85;;;9.40;;
6463;SDS011;3265;42.694;23.282;2023-06-10T01:17:17;16.55;;;9.73;;
6463;SDS011;3265;42.694;23.282;2023-06-10T01:19:44;16.05;;;9.60;;
6463;SDS011;3265;42.694;23.282;2023-06-10T01:22:21;12.05;;;9.13;;
6463;SDS011;3265;42.694;23.282;2023-06-10T01:24:49;13.60;;;9.20;;
6463;SDS011;3265;42.694;23.282;2023-06-10T01:27:16;11.27;;;8.70;;
6463;SDS011;3265;42.694;23.282;2023-06-10T01:29:49;17.67;;;9.45;;
6463;SDS011;3265;42.694;23.282;2023-06-10T01:32:23;12.93;;;9.30;;
6463;SDS011;3265;42.694;23.282;2023-06-10T01:34:55;12.88;;;9.38;;
6463;SDS011;3265;42.694;23.282;2023-06-10T01:37:25;14.23;;;9.15;;
6463;SDS011;3265;42.694;23.282;2023-06-10T01:39:54;11.85;;;8.57;;
6463;SDS011;3265;42.694;23.282;2023-06-10T01:42:23;10.02;;;8.85;;
6463;SDS011;3265;42.694;23.282;2023-06-10T01:44:51;13.25;;;8.82;;
6463;SDS011;3265;42.694;23.282;2023-06-10T01:47:18;14.30;;;8.98;;
6463;SDS011;3265;42.694;23.282;2023-06-10T01:49:45;11.98;;;8.35;;
6463;SDS011;3265;42.694;23.282;2023-06-10T01:52:12;11.13;;;8.82;;
6463;SDS011;3265;42.694;23.282;2023-06-10T01:54:40;13.43;;;8.57;;
6463;SDS011;3265;42.694;23.282;2023-06-10T01:57:07;12.85;;;8.70;;
6463;SDS011;3265;42.694;23.282;2023-06-10T01:59:34;16.15;;;9.23;;
6463;SDS011;3265;42.694;23.282;2023-06-10T02:02:03;12.75;;;7.97;;
6463;SDS011;3265;42.694;23.282;2023-06-10T02:04:30;12.18;;;8.40;;
6463;SDS011;3265;42.694;23.282;2023-06-10T02:06:57;12.88;;;8.43;;
6463;SDS011;3265;42.694;23.282;2023-06-10T02:09:23;13.27;;;7.93;;
6463;SDS011;3265;42.694;23.282;2023-06-10T02:11:52;10.75;;;8.02;;
6463;SDS011;3265;42.694;23.282;2023-06-10T02:14:19;11.65;;;8.02;;
6463;SDS011;3265;42.694;23.282;2023-06-10T02:16:46;13.00;;;8.45;;
6463;SDS011;3265;42.694;23.282;2023-06-10T02:19:13;12.13;;;7.93;;
6463;SDS011;3265;42.694;23.282;2023-06-10T02:21:40;11.73;;;7.65;;
6463;SDS011;3265;42.694;23.282;2023-06-10T02:24:07;10.43;;;7.55;;
6463;SDS011;3265;42.694;23.282;2023-06-10T02:26:34;12.20;;;7.55;;
6463;SDS011;3265;42.694;23.282;2023-06-10T02:29:02;15.27;;;7.85;;
6463;SDS011;3265;42.694;23.282;2023-06-10T02:31:29;14.02;;;7.38;;
6463;SDS011;3265;42.694;23.282;2023-06-10T02:33:55;17.92;;;7.93;;
6463;SDS011;3265;42.694;23.282;2023-06-10T02:36:22;12.70;;;7.55;;
6463;SDS011;3265;42.694;23.282;2023-06-10T02:38:49;14.80;;;7.85;;
6463;SDS011;3265;42.694;23.282;2023-06-10T02:41:16;8.35;;;7.40;;
6463;SDS011;3265;42.694;23.282;2023-06-10T02:43:43;10.18;;;7.35;;
6463;SDS011;3265;42.694;23.282;2023-06-10T02:46:11;9.65;;;7.00;;
6463;SDS011;3265;42.694;23.282;2023-06-10T02:48:41;11.18;;;7.38;;
6463;SDS011;3265;42.694;23.282;2023-06-10T02:51:09;10.65;;;7.75;;
6463;SDS011;3265;42.694;23.282;2023-06-10T02:53:36;11.38;;;7.78;;
6463;SDS011;3265;42.694;23.282;2023-06-10T02:56:03;8.48;;;6.97;;
6463;SDS011;3265;42.694;23.282;2023-06-10T02:58:30;11.50;;;7.40;;
6463;SDS011;3265;42.694;23.282;2023-06-10T03:00:56;10.70;;;7.78;;
6463;SDS011;3265;42.694;23.282;2023-06-10T03:03:25;10.90;;;8.00;;
6463;SDS011;3265;42.694;23.282;2023-06-10T03:05:52;11.35;;;7.30;;
6463;SDS011;3265;42.694;23.282;2023-06-10T03:08:19;9.15;;;7.80;;
6463;SDS011;3265;42.694;23.282;2023-06-10T03:10:46;17.80;;;10.32;;
6463;SDS011;3265;42.694;23.282;2023-06-10T03:13:13;15.02;;;10.55;;
6463;SDS011;3265;42.694;23.282;2023-06-10T03:15:40;13.55;;;9.88;;
6463;SDS011;3265;42.694;23.282;2023-06-10T03:18:07;13.65;;;9.30;;
6463;SDS011;3265;42.694;23.282;2023-06-10T03:20:35;16.88;;;9.45;;
6463;SDS011;3265;42.694;23.282;2023-06-10T03:23:03;15.10;;;9.45;;
6463;SDS011;3265;42.694;23.282;2023-06-10T03:25:31;11.13;;;9.15;;
6463;SDS011;3265;42.694;23.282;2023-06-10T03:27:58;14.02;;;8.93;;
6463;SDS011;3265;42.694;23.282;2023-06-10T03:30:25;12.82;;;9.30;;
6463;SDS011;3265;42.694;23.282;2023-06-10T03:32:53;12.70;;;9.20;;
6463;SDS011;3265;42.694;23.282;2023-06-10T03:35:20;12.00;;;9.57;;
6463;SDS011;3265;42.694;23.282;2023-06-10T03:37:48;11.27;;;9.32;;
6463;SDS011;3265;42.694;23.282;2023-06-10T03:40:15;11.40;;;8.93;;
6463;SDS011;3265;42.694;23.282;2023-06-10T03:42:42;15.48;;;9.75;;
6463;SDS011;3265;42.694;23.282;2023-06-10T03:45:10;17.40;;;9.55;;
6463;SDS011;3265;42.694;23.282;2023-06-10T03:47:37;11.35;;;9.13;;
6463;SDS011;3265;42.694;23.282;2023-06-10T03:50:06;12.82;;;9.93;;
6463;SDS011;3265;42.694;23.282;2023-06-10T03:52:34;12.32;;;9.60;;
6463;SDS011;3265;42.694;23.282;2023-06-10T03:55:03;12.88;;;9.40;;
6463;SDS011;3265;42.694;23.282;2023-06-10T03:57:30;15.52;;;9.73;;
6463;SDS011;3265;42.694;23.282;2023-06-10T03:59:57;15.55;;;9.68;;
6463;SDS011;3265;42.694;23.282;2023-06-10T04:02:24;13.90;;;9.25;;
6463;SDS011;3265;42.694;23.282;2023-06-10T04:04:51;13.93;;;9.65;;
6463;SDS011;3265;42.694;23.282;2023-06-10T04:07:18;13.13;;;9.43;;
6463;SDS011;3265;42.694;23.282;2023-06-10T04:09:45;15.25;;;8.63;;
6463;SDS011;3265;42.694;23.282;2023-06-10T04:12:14;14.23;;;8.88;;
6463;SDS011;3265;42.694;23.282;2023-06-10T04:14:42;13.02;;;9.10;;
6463;SDS011;3265;42.694;23.282;2023-06-10T04:17:08;11.13;;;8.52;;
6463;SDS011;3265;42.694;23.282;2023-06-10T04:19:38;16.10;;;8.98;;
6463;SDS011;3265;42.694;23.282;2023-06-10T04:22:05;12.35;;;8.52;;
6463;SDS011;3265;42.694;23.282;2023-06-10T04:24:32;12.65;;;8.80;;
6463;SDS011;3265;42.694;23.282;2023-06-10T04:26:59;12.52;;;9.15;;
6463;SDS011;3265;42.694;23.282;2023-06-10T04:29:27;13.60;;;9.05;;
6463;SDS011;3265;42.694;23.282;2023-06-10T04:31:54;11.40;;;9.15;;
6463;SDS011;3265;42.694;23.282;2023-06-10T04:34:21;15.80;;;9.48;;
6463;SDS011;3265;42.694;23.282;2023-06-10T04:36:47;13.25;;;9.30;;
6463;SDS011;3265;42.694;23.282;2023-06-10T04:39:16;12.75;;;8.63;;
6463;SDS011;3265;42.694;23.282;2023-06-10T04:41:43;15.07;;;9.57;;
6463;SDS011;3265;42.694;23.282;2023-06-10T04:44:12;18.80;;;9.55;;
6463;SDS011;3265;42.694;23.282;2023-06-10T04:46:40;11.68;;;9.15;;
6463;SDS011;3265;42.694;23.282;2023-06-10T04:49:07;15.32;;;9.38;;
6463;SDS011;3265;42.694;23.282;2023-06-10T04:51:34;10.93;;;8.80;;
6463;SDS011;3265;42.694;23.282;2023-06-10T04:54:01;15.80;;;8.63;;
6463;SDS011;3265;42.694;23.282;2023-06-10T04:56:28;14.02;;;8.85;;
6463;SDS011;3265;42.694;23.282;2023-06-10T04:58:56;11.75;;;9.32;;
6463;SDS011;3265;42.694;23.282;2023-06-10T05:01:22;16.33;;;9.50;;
6463;SDS011;3265;42.694;23.282;2023-06-10T05:03:51;13.63;;;9.23;;
6463;SDS011;3265;42.694;23.282;2023-06-10T05:06:18;15.52;;;9.57;;
6463;SDS011;3265;42.694;23.282;2023-06-10T05:08:45;10.98;;;9.23;;
6463;SDS011;3265;42.694;23.282;2023-06-10T05:11:11;14.43;;;9.35;;
6463;SDS011;3265;42.694;23.282;2023-06-10T05:13:38;13.88;;;9.80;;
6463;SDS011;3265;42.694;23.282;2023-06-10T05:16:05;13.63;;;9.43;;
6463;SDS011;3265;42.694;23.282;2023-06-10T05:18:32;11.75;;;9.18;;
6463;SDS011;3265;42.694;23.282;2023-06-10T05:21:02;15.80;;;10.20;;
6463;SDS011;3265;42.694;23.282;2023-06-10T05:23:29;15.77;;;10.70;;
6463;SDS011;3265;42.694;23.282;2023-06-10T05:25:55;18.30;;;13.82;;
6463;SDS011;3265;42.694;23.282;2023-06-10T05:28:23;19.52;;;16.23;;
6463;SDS011;3265;42.694;23.282;2023-06-10T05:30:50;18.70;;;14.05;;
6463;SDS011;3265;42.694;23.282;2023-06-10T05:33:17;29.77;;;20.95;;
6463;SDS011;3265;42.694;23.282;2023-06-10T05:35:47;57.25;;;41.80;;
6463;SDS011;3265;42.694;23.282;2023-06-10T05:38:24;30.42;;;20.73;;
6463;SDS011;3265;42.694;23.282;2023-06-10T05:40:51;18.73;;;12.73;;
6463;SDS011;3265;42.694;23.282;2023-06-10T05:43:18;18.52;;;11.68;;
6463;SDS011;3265;42.694;23.282;2023-06-10T05:45:51;12.85;;;10.43;;
6463;SDS011;3265;42.694;23.282;2023-06-10T05:48:21;9.23;;;7.78;;
6463;SDS011;3265;42.694;23.282;2023-06-10T05:50:48;14.95;;;9.05;;
6463;SDS011;3265;42.694;23.282;2023-06-10T05:53:15;12.38;;;8.80;;
6463;SDS011;3265;42.694;23.282;2023-06-10T05:55:43;13.43;;;8.68;;
6463;SDS011;3265;42.694;23.282;2023-06-10T05:58:11;8.88;;;7.10;;
6463;SDS011;3265;42.694;23.282;2023-06-10T06:00:39;11.73;;;7.70;;
6463;SDS011;3265;42.694;23.282;2023-06-10T06:03:06;12.40;;;7.55;;
6463;SDS011;3265;42.694;23.282;2023-06-10T06:05:34;10.85;;;7.85;;
6463;SDS011;3265;42.694;23.282;2023-06-10T06:08:02;11.60;;;7.95;;
6463;SDS011;3265;42.694;23.282;2023-06-10T06:10:29;14.35;;;8.32;;
6463;SDS011;3265;42.694;23.282;2023-06-10T06:12:58;12.30;;;7.53;;
6463;SDS011;3265;42.694;23.282;2023-06-10T06:15:25;9.82;;;8.00;;
6463;SDS011;3265;42.694;23.282;2023-06-10T06:17:52;9.77;;;7.82;;
6463;SDS011;3265;42.694;23.282;2023-06-10T06:20:19;11.02;;;8.05;;
6463;SDS011;3265;42.694;23.282;2023-06-10T06:22:46;12.70;;;7.93;;
6463;SDS011;3265;42.694;23.282;2023-06-10T06:25:13;10.23;;;8.15;;
6463;SDS011;3265;42.694;23.282;2023-06-10T06:27:40;9.15;;;8.07;;
6463;SDS011;3265;42.694;23.282;2023-06-10T06:30:09;10.57;;;8.15;;
6463;SDS011;3265;42.694;23.282;2023-06-10T06:32:36;13.65;;;9.00;;
6463;SDS011;3265;42.694;23.282;2023-06-10T06:35:03;12.95;;;8.73;;
6463;SDS011;3265;42.694;23.282;2023-06-10T06:37:32;16.50;;;10.63;;
6463;SDS011;3265;42.694;23.282;2023-06-10T06:40:00;17.42;;;9.68;;
6463;SDS011;3265;42.694;23.282;2023-06-10T06:42:28;12.85;;;8.60;;
6463;SDS011;3265;42.694;23.282;2023-06-10T06:44:55;13.50;;;7.47;;
6463;SDS011;3265;42.694;23.282;2023-06-10T06:47:23;10.27;;;7.78;;
6463;SDS011;3265;42.694;23.282;2023-06-10T06:49:51;14.77;;;7.97;;
6463;SDS011;3265;42.694;23.282;2023-06-10T06:52:18;9.75;;;6.97;;
6463;SDS011;3265;42.694;23.282;2023-06-10T06:54:45;9.98;;;6.65;;
6463;SDS011;3265;42.694;23.282;2023-06-10T06:57:12;14.93;;;6.95;;
6463;SDS011;3265;42.694;23.282;2023-06-10T06:59:38;14.25;;;7.63;;
6463;SDS011;3265;42.694;23.282;2023-06-10T07:02:05;10.50;;;7.50;;
6463;SDS011;3265;42.694;23.282;2023-06-10T07:04:34;11.00;;;7.70;;
6463;SDS011;3265;42.694;23.282;2023-06-10T07:07:01;10.57;;;7.28;;
6463;SDS011;3265;42.694;23.282;2023-06-10T07:09:28;10.85;;;7.05;;
6463;SDS011;3265;42.694;23.282;2023-06-10T07:11:55;10.02;;;7.57;;
6463;SDS011;3265;42.694;23.282;2023-06-10T07:14:21;15.38;;;6.70;;
6463;SDS011;3265;42.694;23.282;2023-06-10T07:16:48;10.98;;;6.63;;
6463;SDS011;3265;42.694;23.282;2023-06-10T07:19:15;8.25;;;6.60;;
6463;SDS011;3265;42.694;23.282;2023-06-10T07:21:43;9.23;;;6.80;;
6463;SDS011;3265;42.694;23.282;2023-06-10T07:24:10;12.27;;;6.60;;
6463;SDS011;3265;42.694;23.282;2023-06-10T07:26:37;9.48;;;6.57;;
6463;SDS011;3265;42.694;23.282;2023-06-10T07:29:04;9.15;;;6.00;;
6463;SDS011;3265;42.694;23.282;2023-06-10T07:31:30;9.65;;;5.68;;
6463;SDS011;3265;42.694;23.282;2023-06-10T07:33:57;8.05;;;5.72;;
6463;SDS011;3265;42.694;23.282;2023-06-10T07:36:24;8.88;;;6.45;;
6463;SDS011;3265;42.694;23.282;2023-06-10T07:38:53;8.55;;;5.68;;
6463;SDS011;3265;42.694;23.282;2023-06-10T07:41:22;6.70;;;5.05;;
6463;SDS011;3265;42.694;23.282;2023-06-10T07:43:50;15.27;;;5.60;;
6463;SDS011;3265;42.694;23.282;2023-06-10T07:46:19;7.32;;;5.60;;
6463;SDS011;3265;42.694;23.282;2023-06-10T07:48:46;5.97;;;4.85;;
6463;SDS011;3265;42.694;23.282;2023-06-10T07:51:13;9.82;;;5.18;;
6463;SDS011;3265;42.694;23.282;2023-06-10T07:53:41;8.07;;;5.18;;
6463;SDS011;3265;42.694;23.282;2023-06-10T07:56:09;7.10;;;5.32;;
6463;SDS011;3265;42.694;23.282;2023-06-10T07:58:36;8.50;;;5.93;;
6463;SDS011;3265;42.694;23.282;2023-06-10T08:01:03;8.60;;;5.75;;
6463;SDS011;3265;42.694;23.282;2023-06-10T08:03:30;13.55;;;6.05;;
6463;SDS011;3265;42.694;23.282;2023-06-10T08:05:56;9.40;;;5.60;;
6463;SDS011;3265;42.694;23.282;2023-06-10T08:08:23;11.23;;;5.85;;
6463;SDS011;3265;42.694;23.282;2023-06-10T08:10:50;9.68;;;5.80;;
6463;SDS011;3265;42.694;23.282;2023-06-10T08:13:18;7.70;;;5.40;;
6463;SDS011;3265;42.694;23.282;2023-06-10T08:15:45;10.55;;;5.55;;
6463;SDS011;3265;42.694;23.282;2023-06-10T08:18:13;8.70;;;4.97;;
6463;SDS011;3265;42.694;23.282;2023-06-10T08:20:39;8.25;;;5.25;;
6463;SDS011;3265;42.694;23.282;2023-06-10T08:23:06;8.75;;;5.15;;
6463;SDS011;3265;42.694;23.282;2023-06-10T08:25:33;7.38;;;4.80;;
6463;SDS011;3265;42.694;23.282;2023-06-10T08:28:00;8.45;;;5.60;;
6463;SDS011;3265;42.694;23.282;2023-06-10T08:30:28;7.50;;;4.90;;
6463;SDS011;3265;42.694;23.282;2023-06-10T08:32:55;7.78;;;4.97;;
6463;SDS011;3265;42.694;23.282;2023-06-10T08:35:22;9.65;;;4.93;;
6463;SDS011;3265;42.694;23.282;2023-06-10T08:37:49;8.23;;;5.00;;
6463;SDS011;3265;42.694;23.282;2023-06-10T08:40:15;7.78;;;4.75;;
6463;SDS011;3265;42.694;23.282;2023-06-10T08:42:43;9.70;;;4.65;;
6463;SDS011;3265;42.694;23.282;2023-06-10T08:45:16;5.35;;;4.75;;
6463;SDS011;3265;42.694;23.282;2023-06-10T08:47:45;6.03;;;4.35;;
6463;SDS011;3265;42.694;23.282;2023-06-10T08:50:16;7.97;;;4.38;;
6463;SDS011;3265;42.694;23.282;2023-06-10T08:52:44;8.15;;;4.40;;
6463;SDS011;3265;42.694;23.282;2023-06-10T08:55:18;4.97;;;3.65;;
6463;SDS011;3265;42.694;23.282;2023-06-10T08:57:51;7.40;;;4.35;;
6463;SDS011;3265;42.694;23.282;2023-06-10T09:00:18;6.35;;;4.20;;
6463;SDS011;3265;42.694;23.282;2023-06-10T09:02:47;7.25;;;4.20;;
6463;SDS011;3265;42.694;23.282;2023-06-10T09:05:14;8.40;;;4.30;;
6463;SDS011;3265;42.694;23.282;2023-06-10T09:07:41;5.90;;;4.10;;
6463;SDS011;3265;42.694;23.282;2023-06-10T09:10:09;7.00;;;4.40;;
6463;SDS011;3265;42.694;23.282;2023-06-10T09:12:37;6.03;;;4.43;;
6463;SDS011;3265;42.694;23.282;2023-06-10T09:15:04;6.25;;;4.85;;
6463;SDS011;3265;42.694;23.282;2023-06-10T09:17:32;5.80;;;4.22;;
6463;SDS011;3265;42.694;23.282;2023-06-10T09:20:02;8.32;;;4.35;;
6463;SDS011;3265;42.694;23.282;2023-06-10T09:22:30;7.85;;;4.47;;
6463;SDS011;3265;42.694;23.282;2023-06-10T09:25:03;4.82;;;4.05;;
6463;SDS011;3265;42.694;23.282;2023-06-10T09:27:31;4.40;;;3.90;;
6463;SDS011;3265;42.694;23.282;2023-06-10T09:29:58;5.10;;;4.28;;
6463;SDS011;3265;42.694;23.282;2023-06-10T09:32:25;7.53;;;4.30;;
6463;SDS011;3265;42.694;23.282;2023-06-10T09:34:53;9.90;;;4.55;;
6463;SDS011;3265;42.694;23.282;2023-06-10T09:37:21;6.30;;;4.50;;
6463;SDS011;3265;42.694;23.282;2023-06-10T09:40:04;5.47;;;4.43;;
6463;SDS011;3265;42.694;23.282;2023-06-10T09:42:32;7.88;;;4.22;;
6463;SDS011;3265;42.694;23.282;2023-06-10T09:45:00;5.00;;;4.03;;
6463;SDS011;3265;42.694;23.282;2023-06-10T09:47:27;6.85;;;4.72;;
6463;SDS011;3265;42.694;23.282;2023-06-10T09:49:55;6.72;;;4.30;;
6463;SDS011;3265;42.694;23.282;2023-06-10T09:52:23;7.55;;;4.60;;
6463;SDS011;3265;42.694;23.282;2023-06-10T09:54:51;5.18;;;4.10;;
6463;SDS011;3265;42.694;23.282;2023-06-10T09:57:18;5.65;;;4.65;;
6463;SDS011;3265;42.694;23.282;2023-06-10T09:59:45;7.68;;;4.75;;
6463;SDS011;3265;42.694;23.282;2023-06-10T10:02:13;5.95;;;3.67;;
6463;SDS011;3265;42.694;23.282;2023-06-10T10:04:41;7.00;;;3.72;;
6463;SDS011;3265;42.694;23.282;2023-06-10T10:07:08;4.45;;;3.53;;
6463;SDS011;3265;42.694;23.282;2023-06-10T10:09:37;8.75;;;4.07;;
6463;SDS011;3265;42.694;23.282;2023-06-10T10:12:04;4.18;;;3.50;;
6463;SDS011;3265;42.694;23.282;2023-06-10T10:14:35;6.28;;;3.90;;
6463;SDS011;3265;42.694;23.282;2023-06-10T10:17:04;4.35;;;3.67;;
6463;SDS011;3265;42.694;23.282;2023-06-10T10:19:33;4.68;;;3.72;;
6463;SDS011;3265;42.694;23.282;2023-06-10T10:22:06;4.25;;;3.75;;
6463;SDS011;3265;42.694;23.282;2023-06-10T10:24:38;5.60;;;3.95;;
6463;SDS011;3265;42.694;23.282;2023-06-10T10:27:11;5.90;;;3.60;;
6463;SDS011;3265;42.694;23.282;2023-06-10T10:29:44;6.68;;;3.47;;
6463;SDS011;3265;42.694;23.282;2023-06-10T10:32:13;4.45;;;3.80;;
6463;SDS011;3265;42.694;23.282;2023-06-10T10:34:43;5.40;;;3.80;;
6463;SDS011;3265;42.694;23.282;2023-06-10T10:37:17;7.00;;;3.28;;
6463;SDS011;3265;42.694;23.282;2023-06-10T10:39:45;12.70;;;3.40;;
6463;SDS011;3265;42.694;23.282;2023-06-10T10:42:13;6.45;;;3.70;;
6463;SDS011;3265;42.694;23.282;2023-06-10T10:44:40;6.25;;;3.47;;
6463;SDS011;3265;42.694;23.282;2023-06-10T10:47:08;3.67;;;3.25;;
6463;SDS011;3265;42.694;23.282;2023-06-10T10:49:35;4.40;;;3.40;;
6463;SDS011;3265;42.694;23.282;2023-06-10T10:52:04;3.85;;;2.97;;
6463;SDS011;3265;42.694;23.282;2023-06-10T10:54:32;5.82;;;3.47;;
6463;SDS011;3265;42.694;23.282;2023-06-10T10:57:17;4.22;;;3.40;;
6463;SDS011;3265;42.694;23.282;2023-06-10T10:59:51;4.63;;;3.55;;
6463;SDS011;3265;42.694;23.282;2023-06-10T11:02:37;4.25;;;3.50;;
6463;SDS011;3265;42.694;23.282;2023-06-10T11:05:08;5.43;;;3.30;;
6463;SDS011;3265;42.694;23.282;2023-06-10T11:07:37;3.83;;;2.90;;
6463;SDS011;3265;42.694;23.282;2023-06-10T11:10:07;4.40;;;3.10;;
6463;SDS011;3265;42.694;23.282;2023-06-10T11:15:25;4.13;;;3.35;;
6463;SDS011;3265;42.694;23.282;2023-06-10T11:20:56;4.40;;;3.30;;
6463;SDS011;3265;42.694;23.282;2023-06-10T11:23:24;4.22;;;3.53;;
6463;SDS011;3265;42.694;23.282;2023-06-10T11:26:14;6.60;;;3.78;;
6463;SDS011;3265;42.694;23.282;2023-06-10T11:29:01;7.95;;;4.15;;
6463;SDS011;3265;42.694;23.282;2023-06-10T11:31:41;6.95;;;4.63;;
6463;SDS011;3265;42.694;23.282;2023-06-10T11:34:09;7.28;;;4.00;;
6463;SDS011;3265;42.694;23.282;2023-06-10T11:36:38;6.55;;;4.30;;
6463;SDS011;3265;42.694;23.282;2023-06-10T11:39:10;13.13;;;7.68;;
6463;SDS011;3265;42.694;23.282;2023-06-10T11:41:38;8.07;;;4.70;;
6463;SDS011;3265;42.694;23.282;2023-06-10T11:44:10;7.15;;;4.38;;
6463;SDS011;3265;42.694;23.282;2023-06-10T11:46:39;7.22;;;5.00;;
6463;SDS011;3265;42.694;23.282;2023-06-10T11:49:11;8.52;;;4.30;;
6463;SDS011;3265;42.694;23.282;2023-06-10T11:51:38;8.07;;;4.80;;
6463;SDS011;3265;42.694;23.282;2023-06-10T11:54:09;11.43;;;4.60;;
6463;SDS011;3265;42.694;23.282;2023-06-10T11:56:36;5.57;;;4.28;;
6463;SDS011;3265;42.694;23.282;2023-06-10T11:59:03;6.43;;;4.38;;
6463;SDS011;3265;42.694;23.282;2023-06-10T12:01:34;6.38;;;4.78;;
6463;SDS011;3265;42.694;23.282;2023-06-10T12:04:03;5.72;;;4.20;;
6463;SDS011;3265;42.694;23.282;2023-06-10T12:06:37;4.70;;;3.85;;
6463;SDS011;3265;42.694;23.282;2023-06-10T12:09:05;6.43;;;4.25;;
6463;SDS011;3265;42.694;23.282;2023-06-10T12:11:33;7.00;;;4.07;;
6463;SDS011;3265;42.694;23.282;2023-06-10T12:14:00;6.65;;;5.10;;
6463;SDS011;3265;42.694;23.282;2023-06-10T12:16:28;8.45;;;4.05;;
6463;SDS011;3265;42.694;23.282;2023-06-10T12:19:02;5.28;;;3.60;;
6463;SDS011;3265;42.694;23.282;2023-06-10T12:21:29;6.00;;;4.10;;
6463;SDS011;3265;42.694;23.282;2023-06-10T12:24:01;5.72;;;3.97;;
6463;SDS011;3265;42.694;23.282;2023-06-10T12:26:35;5.45;;;4.22;;
6463;SDS011;3265;42.694;23.282;2023-06-10T12:29:12;6.00;;;4.20;;
6463;SDS011;3265;42.694;23.282;2023-06-10T12:31:52;6.13;;;4.00;;
6463;SDS011;3265;42.694;23.282;2023-06-10T12:34:21;4.72;;;3.80;;
6463;SDS011;3265;42.694;23.282;2023-06-10T12:36:54;7.18;;;3.95;;
6463;SDS011;3265;42.694;23.282;2023-06-10T12:39:21;7.43;;;4.03;;
6463;SDS011;3265;42.694;23.282;2023-06-10T12:41:48;7.03;;;4.38;;
6463;SDS011;3265;42.694;23.282;2023-06-10T12:44:15;5.20;;;3.90;;
6463;SDS011;3265;42.694;23.282;2023-06-10T12:46:42;5.38;;;4.13;;
6463;SDS011;3265;42.694;23.282;2023-06-10T12:49:18;5.78;;;4.20;;
6463;SDS011;3265;42.694;23.282;2023-06-10T12:51:47;5.47;;;4.20;;
6463;SDS011;3265;42.694;23.282;2023-06-10T12:54:14;6.75;;;4.13;;
6463;SDS011;3265;42.694;23.282;2023-06-10T12:56:41;4.32;;;3.90;;
6463;SDS011;3265;42.694;23.282;2023-06-10T12:59:08;8.18;;;4.40;;
6463;SDS011;3265;42.694;23.282;2023-06-10T13:01:34;5.68;;;3.95;;
6463;SDS011;3265;42.694;23.282;2023-06-10T13:04:01;6.18;;;4.05;;
6463;SDS011;3265;42.694;23.282;2023-06-10T13:06:31;6.13;;;3.95;;
6463;SDS011;3265;42.694;23.282;2023-06-10T13:09:03;8.73;;;4.15;;
6463;SDS011;3265;42.694;23.282;2023-06-10T13:11:31;5.32;;;4.20;;
6463;SDS011;3265;42.694;23.282;2023-06-10T13:13:58;8.48;;;4.28;;
6463;SDS011;3265;42.694;23.282;2023-06-10T13:16:25;6.85;;;4.22;;
6463;SDS011;3265;42.694;23.282;2023-06-10T13:18:52;9.07;;;4.30;;
6463;SDS011;3265;42.694;23.282;2023-06-10T13:21:20;8.10;;;4.65;;
6463;SDS011;3265;42.694;23.282;2023-06-10T13:23:46;9.00;;;4.50;;
6463;SDS011;3265;42.694;23.282;2023-06-10T13:26:15;9.88;;;4.53;;
6463;SDS011;3265;42.694;23.282;2023-06-10T13:28:42;10.90;;;4.70;;
6463;SDS011;3265;42.694;23.282;2023-06-10T13:31:09;7.75;;;4.50;;
6463;SDS011;3265;42.694;23.282;2023-06-10T13:33:36;10.27;;;5.22;;
6463;SDS011;3265;42.694;23.282;2023-06-10T13:36:03;6.68;;;5.22;;
6463;SDS011;3265;42.694;23.282;2023-06-10T13:38:31;14.82;;;5.75;;
6463;SDS011;3265;42.694;23.282;2023-06-10T13:40:57;7.40;;;5.43;;
6463;SDS011;3265;42.694;23.282;2023-06-10T13:43:26;9.23;;;5.53;;
6463;SDS011;3265;42.694;23.282;2023-06-10T13:45:53;10.38;;;5.53;;
6463;SDS011;3265;42.694;23.282;2023-06-10T13:48:20;8.95;;;5.43;;
6463;SDS011;3265;42.694;23.282;2023-06-10T13:50:47;6.53;;;5.40;;
6463;SDS011;3265;42.694;23.282;2023-06-10T13:53:14;8.15;;;5.38;;
6463;SDS011;3265;42.694;23.282;2023-06-10T13:55:41;7.70;;;6.10;;
6463;SDS011;3265;42.694;23.282;2023-06-10T13:58:08;6.60;;;5.18;;
6463;SDS011;3265;42.694;23.282;2023-06-10T14:00:36;8.85;;;5.13;;
6463;SDS011;3265;42.694;23.282;2023-06-10T14:03:03;8.43;;;5.65;;
6463;SDS011;3265;42.694;23.282;2023-06-10T14:05:29;8.88;;;5.60;;
6463;SDS011;3265;42.694;23.282;2023-06-10T14:07:57;9.45;;;5.68;;
6463;SDS011;3265;42.694;23.282;2023-06-10T14:10:23;11.23;;;5.57;;
6463;SDS011;3265;42.694;23.282;2023-06-10T14:12:50;7.20;;;5.55;;
6463;SDS011;3265;42.694;23.282;2023-06-10T14:15:17;10.07;;;6.10;;
6463;SDS011;3265;42.694;23.282;2023-06-10T14:17:45;10.80;;;6.15;;
6463;SDS011;3265;42.694;23.282;2023-06-10T14:20:12;8.50;;;5.45;;
6463;SDS011;3265;42.694;23.282;2023-06-10T14:22:39;9.15;;;5.68;;
6463;SDS011;3265;42.694;23.282;2023-06-10T14:25:06;9.18;;;5.88;;
6463;SDS011;3265;42.694;23.282;2023-06-10T14:27:33;6.65;;;4.90;;
6463;SDS011;3265;42.694;23.282;2023-06-10T14:30:00;6.57;;;4.93;;
6463;SDS011;3265;42.694;23.282;2023-06-10T14:32:28;8.95;;;5.28;;
6463;SDS011;3265;42.694;23.282;2023-06-10T14:34:56;6.20;;;4.60;;
6463;SDS011;3265;42.694;23.282;2023-06-10T14:37:23;7.15;;;5.00;;
6463;SDS011;3265;42.694;23.282;2023-06-10T14:39:51;7.30;;;5.25;;
6463;SDS011;3265;42.694;23.282;2023-06-10T14:42:17;5.80;;;4.82;;
6463;SDS011;3265;42.694;23.282;2023-06-10T14:44:44;7.88;;;4.60;;
6463;SDS011;3265;42.694;23.282;2023-06-10T14:47:11;7.28;;;5.32;;
6463;SDS011;3265;42.694;23.282;2023-06-10T14:49:38;8.00;;;4.68;;
6463;SDS011;3265;42.694;23.282;2023-06-10T14:52:08;9.48;;;4.97;;
6463;SDS011;3265;42.694;23.282;2023-06-10T14:54:35;7.22;;;5.03;;
6463;SDS011;3265;42.694;23.282;2023-06-10T14:57:02;6.15;;;4.65;;
6463;SDS011;3265;42.694;23.282;2023-06-10T14:59:30;6.05;;;4.70;;
6463;SDS011;3265;42.694;23.282;2023-06-10T15:01:57;6.63;;;4.50;;
6463;SDS011;3265;42.694;23.282;2023-06-10T15:04:25;6.57;;;4.50;;